Time;durP1;ratioP1;P1;durP2;ratioP2;P2;SDS_P1;SDS_P2;PMS_P1;PMS_P2;Temp;Humidity;BMP_temperature;BMP_pressure;BME280_temperature;BME280_humidity;BME280_pressure;Samples;Min_cycle;Max_cycle;Signal;HPM_P1;HPM_P2
2022/01/11 00:00:20;;;;;;;63.40;25.58;;;-0.20;99.90;;;;;;4999697;28;20108;-95
2022/01/11 00:02:47;;;;;;;145.50;33.17;;;-0.40;99.90;;;;;;4999437;28;20561;-94
2022/01/11 00:07:58;;;;;;;70.38;27.65;;;-0.30;99.90;;;;;;5015312;28;20064;-94
2022/01/11 00:10:31;;;;;;;67.55;27.23;;;-0.10;99.90;;;;;;4999280;28;20054;-93
2022/01/11 00:12:59;;;;;;;59.00;26.15;;;-0.50;99.90;;;;;;4999564;28;20054;-93
2022/01/11 00:15:25;;;;;;;68.95;26.45;;;-0.80;99.90;;;;;;4999698;28;20062;-95
2022/01/11 00:17:51;;;;;;;63.15;27.23;;;-0.90;99.90;;;;;;5015141;28;20521;-94
2022/01/11 00:20:19;;;;;;;66.80;26.38;;;-0.80;99.90;;;;;;4999469;28;20046;-94
2022/01/11 00:25:28;;;;;;;58.28;25.77;;;-1.10;99.90;;;;;;5015573;28;20061;-94
2022/01/11 00:27:54;;;;;;;63.78;27.30;;;-1.20;99.90;;;;;;4999245;28;20057;-94
2022/01/11 00:30:20;;;;;;;66.47;27.35;;;-1.20;99.90;;;;;;5015654;28;20073;-94
2022/01/11 00:32:48;;;;;;;78.38;28.60;;;-1.30;99.90;;;;;;4998756;28;20054;-93
2022/01/11 00:35:16;;;;;;;67.55;26.80;;;-1.30;99.90;;;;;;4998651;28;20089;-92
2022/01/11 00:37:44;;;;;;;73.15;27.65;;;-1.30;99.90;;;;;;5015381;28;20128;-94
2022/01/11 00:40:11;;;;;;;70.38;28.10;;;-0.90;99.90;;;;;;4998874;28;20049;-93
2022/01/11 00:42:37;;;;;;;84.38;27.85;;;-1.30;99.90;;;;;;4998391;28;20407;-94
2022/01/11 00:45:05;;;;;;;86.18;28.40;;;-1.20;99.90;;;;;;4998888;28;20054;-94
2022/01/11 00:47:31;;;;;;;70.72;27.05;;;-1.20;99.90;;;;;;4999072;28;20060;-93
2022/01/11 00:49:56;;;;;;;77.78;26.20;;;-1.20;99.90;;;;;;4998435;28;20070;-94
2022/01/11 00:52:22;;;;;;;92.30;27.05;;;-1.10;99.90;;;;;;4998833;28;20487;-94
2022/01/11 00:54:48;;;;;;;63.13;26.58;;;-1.20;99.90;;;;;;4998566;28;20085;-95
2022/01/11 00:57:14;;;;;;;75.90;28.38;;;-0.70;99.90;;;;;;5014699;28;20104;-94
2022/01/11 00:59:40;;;;;;;90.78;29.08;;;-1.20;99.90;;;;;;4998453;28;20487;-93
2022/01/11 01:02:05;;;;;;;67.82;27.42;;;-0.90;99.90;;;;;;4998213;28;20498;-94
2022/01/11 01:04:31;;;;;;;66.70;26.17;;;-1.10;99.90;;;;;;5014623;28;20136;-93
2022/01/11 01:06:57;;;;;;;93.70;28.25;;;-1.20;99.90;;;;;;4998370;28;20054;-94
2022/01/11 01:09:25;;;;;;;63.38;25.13;;;-1.20;99.90;;;;;;4998307;28;20146;-92
2022/01/11 01:11:51;;;;;;;86.65;31.08;;;-0.90;99.90;;;;;;4998428;28;20053;-92
2022/01/11 01:14:17;;;;;;;78.57;28.75;;;-1.10;99.90;;;;;;4998129;28;20061;-93
2022/01/11 01:16:43;;;;;;;66.03;27.15;;;-1.00;99.90;;;;;;4998143;28;20115;-94
2022/01/11 01:19:09;;;;;;;75.03;28.77;;;-1.20;99.90;;;;;;5013078;28;20496;-93
2022/01/11 01:21:38;;;;;;;76.10;29.10;;;-0.90;99.90;;;;;;4998050;28;20143;-93
2022/01/11 01:24:06;;;;;;;161.30;35.08;;;-1.10;99.90;;;;;;4997982;28;20058;-94
2022/01/11 01:26:32;;;;;;;271.73;39.38;;;-1.10;99.90;;;;;;4997590;28;20054;-94
2022/01/11 01:29:00;;;;;;;184.20;35.00;;;-1.00;99.90;;;;;;4997357;28;20080;-93
2022/01/11 01:31:27;;;;;;;175.93;35.45;;;-0.60;99.90;;;;;;4997549;28;20058;-93
2022/01/11 01:33:53;;;;;;;272.48;39.25;;;-1.00;99.90;;;;;;4997475;28;20131;-93
2022/01/11 01:36:19;;;;;;;110.03;30.30;;;-0.80;99.90;;;;;;4998352;28;20093;-93
2022/01/11 01:38:44;;;;;;;305.27;42.67;;;-0.60;99.90;;;;;;4997365;28;20046;-93
2022/01/11 01:41:16;;;;;;;190.43;32.78;;;-0.90;99.90;;;;;;4997871;28;20057;-94
2022/01/11 01:43:44;;;;;;;329.60;41.50;;;-0.90;99.90;;;;;;4997385;28;20058;-92
2022/01/11 01:46:10;;;;;;;212.90;36.08;;;-0.90;99.90;;;;;;5014050;28;20058;-94
2022/01/11 01:48:36;;;;;;;196.40;31.55;;;-0.90;99.90;;;;;;4997275;28;20407;-93
2022/01/11 01:51:06;;;;;;;246.80;37.40;;;-0.80;99.90;;;;;;4997435;28;20061;-94
2022/01/11 01:53:34;;;;;;;143.25;29.83;;;-0.70;99.90;;;;;;4997201;28;20054;-93
2022/01/11 01:56:00;;;;;;;203.93;34.10;;;-0.80;99.90;;;;;;4997343;28;20061;-93
2022/01/11 01:58:26;;;;;;;199.73;34.63;;;-0.80;99.90;;;;;;4997071;28;20416;-94
2022/01/11 02:00:55;;;;;;;191.45;34.67;;;-0.80;99.90;;;;;;4997218;28;20060;-94
2022/01/11 02:03:26;;;;;;;133.63;31.33;;;-0.60;99.90;;;;;;4996936;28;20054;-93
2022/01/11 02:05:53;;;;;;;;;;;-0.60;99.90;;;;;;5013924;28;20054;-93
2022/01/11 02:08:18;;;;;;;151.05;29.17;;;-0.70;99.90;;;;;;4996750;28;20291;-93
2022/01/11 02:10:44;;;;;;;204.70;31.83;;;-0.70;99.90;;;;;;4997108;28;20061;-93
2022/01/11 02:13:10;;;;;;;162.20;31.90;;;-0.60;99.90;;;;;;4996676;28;20058;-93
2022/01/11 02:15:36;;;;;;;181.50;32.25;;;-0.20;99.90;;;;;;4996865;28;20435;-93
2022/01/11 02:18:08;;;;;;;260.95;34.53;;;-0.70;99.90;;;;;;5013007;28;20092;-93
2022/01/11 02:20:35;;;;;;;209.90;32.55;;;-0.70;99.90;;;;;;4996904;28;20049;-93
2022/01/11 02:23:00;;;;;;;280.75;33.03;;;-0.70;99.90;;;;;;4996802;28;20092;-93
2022/01/11 02:25:26;;;;;;;290.83;38.53;;;-0.70;99.90;;;;;;4996808;28;20054;-93
2022/01/11 02:27:52;;;;;;;323.23;36.45;;;-0.70;99.90;;;;;;4997089;28;20054;-93
2022/01/11 02:30:17;;;;;;;123.20;28.38;;;-0.80;99.90;;;;;;4996750;28;20065;-92
2022/01/11 02:32:52;;;;;;;197.55;32.33;;;-0.60;99.90;;;;;;4999679;28;20486;-94
2022/01/11 02:35:19;;;;;;;297.17;37.15;;;-0.60;99.90;;;;;;4999960;28;20407;-92
2022/01/11 02:37:45;;;;;;;164.45;30.80;;;-0.80;99.90;;;;;;5016058;28;20050;-94
2022/01/11 02:40:13;;;;;;;152.20;31.30;;;-0.70;99.90;;;;;;5000152;28;20485;-93
2022/01/11 02:42:39;;;;;;;215.80;31.92;;;-0.80;99.90;;;;;;4999972;28;20083;-92
2022/01/11 02:45:16;;;;;;;174.35;31.90;;;-0.70;99.90;;;;;;5000117;28;20057;-92
2022/01/11 02:47:44;;;;;;;148.05;29.38;;;-0.70;99.90;;;;;;4999839;28;20093;-93
2022/01/11 02:50:11;;;;;;;278.98;33.63;;;-0.70;99.90;;;;;;5016214;28;20144;-93
2022/01/11 02:52:36;;;;;;;234.63;33.28;;;-0.70;99.90;;;;;;4999762;28;20139;-92
2022/01/11 02:55:06;;;;;;;176.18;31.73;;;-0.40;99.90;;;;;;5015944;28;20092;-93
2022/01/11 02:57:35;;;;;;;185.73;32.35;;;-0.70;99.90;;;;;;5000207;28;20057;-92
2022/01/11 03:00:02;;;;;;;278.02;35.58;;;-0.60;99.90;;;;;;5015651;28;20502;-92
2022/01/11 03:02:28;;;;;;;152.30;29.10;;;-0.70;99.90;;;;;;4999672;28;20453;-94
2022/01/11 03:04:53;;;;;;;168.38;31.10;;;-0.40;99.90;;;;;;4999963;28;20057;-94
2022/01/11 03:07:21;;;;;;;179.07;32.08;;;-0.50;99.90;;;;;;5000295;28;20434;-93
2022/01/11 03:10:02;;;;;;;219.38;33.92;;;-0.60;99.90;;;;;;4999809;28;20132;-92
2022/01/11 03:12:29;;;;;;;212.60;33.80;;;-0.80;99.90;;;;;;4999925;28;20062;-93
2022/01/11 03:14:55;;;;;;;159.00;32.25;;;-0.30;99.90;;;;;;5000200;28;20119;-94
2022/01/11 03:17:21;;;;;;;206.57;32.90;;;-0.60;99.90;;;;;;5000022;28;20049;-92
2022/01/11 03:20:40;;;;;;;155.40;31.27;;;-0.60;99.90;;;;;;4999167;28;20045;-92
2022/01/11 03:23:06;;;;;;;153.35;32.13;;;-0.50;99.90;;;;;;5000016;28;20057;-93
2022/01/11 03:25:33;;;;;;;268.90;35.80;;;-0.40;99.90;;;;;;4999302;28;20049;-93
2022/01/11 03:27:58;;;;;;;163.40;32.45;;;-0.50;99.90;;;;;;5016215;28;20065;-92
2022/01/11 03:30:24;;;;;;;200.82;34.25;;;-0.50;99.90;;;;;;5016510;28;20132;-94
2022/01/11 03:32:50;;;;;;;203.07;32.72;;;-0.50;99.90;;;;;;4999640;28;20054;-92
2022/01/11 03:35:16;;;;;;;200.05;32.92;;;-0.20;99.90;;;;;;5000217;28;20091;-92
2022/01/11 03:37:43;;;;;;;188.00;33.13;;;-0.50;99.90;;;;;;5016193;28;20153;-93
2022/01/11 03:40:13;;;;;;;238.43;35.25;;;-0.10;99.90;;;;;;4999339;28;20133;-92
2022/01/11 03:42:40;;;;;;;150.93;30.70;;;-0.50;99.90;;;;;;5017968;28;20450;-93
2022/01/11 03:45:07;;;;;;;142.07;30.27;;;-0.50;99.90;;;;;;5003216;28;20057;-92
2022/01/11 03:47:35;;;;;;;207.05;35.97;;;-0.50;99.90;;;;;;5019648;28;20053;-93
2022/01/11 03:50:20;;;;;;;219.10;33.83;;;-0.40;99.90;;;;;;5002547;28;20495;-92
2022/01/11 03:52:46;;;;;;;214.25;33.70;;;-0.50;99.90;;;;;;5002812;28;20059;-93
2022/01/11 03:55:20;;;;;;;138.48;31.30;;;-0.40;99.90;;;;;;5003248;28;20057;-92
2022/01/11 03:57:47;;;;;;;179.80;32.17;;;-0.50;99.90;;;;;;5002971;28;20064;-92
2022/01/11 04:00:16;;;;;;;176.80;34.83;;;-0.30;99.90;;;;;;5003417;28;20057;-92
2022/01/11 04:02:43;;;;;;;158.90;34.75;;;-0.50;99.90;;;;;;5019131;28;20053;-92
2022/01/11 04:05:11;;;;;;;203.80;36.33;;;-0.40;99.90;;;;;;5002955;28;20144;-93
2022/01/11 04:07:38;;;;;;;179.90;35.42;;;-0.40;99.90;;;;;;5003165;28;20050;-92
2022/01/11 04:10:04;;;;;;;226.27;36.53;;;-0.10;99.90;;;;;;5019341;28;20065;-92
2022/01/11 04:12:30;;;;;;;168.82;34.45;;;-0.40;99.90;;;;;;5019276;28;20179;-91
2022/01/11 04:14:56;;;;;;;226.52;36.65;;;-0.40;99.90;;;;;;5002725;28;20115;-92
2022/01/11 04:17:22;;;;;;;149.25;32.08;;;0.00;99.90;;;;;;5019186;28;20056;-92
2022/01/11 04:19:48;;;;;;;169.80;34.22;;;-0.50;99.90;;;;;;5002780;28;20045;-92
2022/01/11 04:22:14;;;;;;;145.18;32.83;;;-0.50;99.90;;;;;;5018591;28;20096;-93
2022/01/11 04:24:40;;;;;;;184.35;33.58;;;0.00;99.90;;;;;;5019109;28;20115;-91
2022/01/11 04:27:06;;;;;;;224.70;38.35;;;-0.40;99.90;;;;;;5002830;28;20494;-91
2022/01/11 04:29:31;;;;;;;171.15;34.53;;;-0.40;99.90;;;;;;5018790;28;20045;-91
2022/01/11 04:31:57;;;;;;;145.80;33.30;;;-0.40;99.90;;;;;;5019021;28;20046;-91
2022/01/11 04:34:25;;;;;;;180.52;35.83;;;-0.30;99.90;;;;;;5018330;28;20085;-91
2022/01/11 04:40:33;;;;;;;159.10;33.70;;;-0.40;99.90;;;;;;5036140;28;20119;-91
2022/01/11 04:42:59;;;;;;;587.25;60.97;;;-0.40;99.90;;;;;;5018665;28;20095;-90
2022/01/11 04:45:25;;;;;;;147.98;32.28;;;-0.30;99.90;;;;;;5002591;28;20487;-91
2022/01/11 04:47:56;;;;;;;147.38;33.50;;;-0.40;99.90;;;;;;5018859;28;20410;-92
2022/01/11 04:50:31;;;;;;;;;;;-0.50;99.90;;;;;;5002833;28;20512;-91
2022/01/11 04:52:57;;;;;;;136.48;31.85;;;-0.40;99.90;;;;;;5018141;28;19925;-92
2022/01/11 04:55:23;;;;;;;137.48;32.83;;;-0.40;99.90;;;;;;5001566;28;20076;-92
2022/01/11 04:57:49;;;;;;;120.25;30.83;;;-0.50;99.90;;;;;;5001985;28;20080;-90
2022/01/11 05:00:18;;;;;;;314.17;38.15;;;-0.50;99.90;;;;;;5001888;28;20061;-92
2022/01/11 05:02:44;;;;;;;127.72;31.08;;;-0.40;99.90;;;;;;5018609;28;20057;-91
2022/01/11 05:09:29;;;;;;;122.55;30.20;;;-0.50;99.90;;;;;;5035567;28;20068;-91
2022/01/11 05:11:55;;;;;;;139.82;32.85;;;-0.40;99.90;;;;;;5018113;28;20372;-92
2022/01/11 05:14:20;;;;;;;145.80;33.63;;;-0.40;99.90;;;;;;5001776;28;20056;-92
2022/01/11 05:16:46;;;;;;;147.13;34.33;;;-0.40;99.90;;;;;;5018201;28;20100;-91
2022/01/11 05:19:12;;;;;;;133.32;33.38;;;-0.40;99.90;;;;;;5001535;28;20045;-90
2022/01/11 05:25:20;;;;;;;122.68;32.83;;;-0.40;99.90;;;;;;5035103;28;20033;-91
2022/01/11 05:27:46;;;;;;;152.40;35.28;;;-0.40;99.90;;;;;;5001665;28;20235;-91
2022/01/11 05:30:13;;;;;;;129.13;33.65;;;-0.40;99.90;;;;;;5001608;28;20558;-92
2022/01/11 05:32:42;;;;;;;132.20;33.38;;;-0.40;99.90;;;;;;5001395;28;20120;-91
2022/01/11 05:35:10;;;;;;;106.90;30.17;;;-0.40;99.90;;;;;;5017518;28;20081;-91
2022/01/11 05:37:39;;;;;;;173.77;34.92;;;-0.40;99.90;;;;;;5001599;28;20060;-90
2022/01/11 05:40:07;;;;;;;122.55;33.03;;;-0.30;99.90;;;;;;5001271;28;20384;-91
2022/01/11 05:42:33;;;;;;;128.70;33.05;;;-0.50;99.90;;;;;;5017510;28;20046;-91
2022/01/11 05:44:59;;;;;;;116.28;31.35;;;-0.30;99.90;;;;;;5017120;28;20053;-92
2022/01/11 05:47:25;;;;;;;110.60;29.90;;;-0.50;99.90;;;;;;5001116;28;20210;-91
2022/01/11 05:49:52;;;;;;;98.32;29.60;;;-0.50;99.90;;;;;;5001070;28;20515;-92
2022/01/11 05:52:18;;;;;;;151.10;34.17;;;-0.20;99.90;;;;;;5001047;28;20045;-91
2022/01/11 05:54:44;;;;;;;409.67;44.63;;;-0.40;99.90;;;;;;5017308;28;20061;-91
2022/01/11 05:57:09;;;;;;;112.43;31.40;;;-0.50;99.90;;;;;;5017197;28;20097;-91
2022/01/11 05:59:35;;;;;;;111.82;29.73;;;-0.50;99.90;;;;;;5016686;28;20095;-91
2022/01/11 06:02:01;;;;;;;111.85;31.13;;;-0.50;99.90;;;;;;5017059;28;20560;-90
2022/01/11 06:04:27;;;;;;;94.07;30.23;;;-0.60;99.90;;;;;;5016696;28;20107;-91
2022/01/11 06:06:52;;;;;;;159.45;32.15;;;-0.60;99.90;;;;;;5016955;28;20084;-91
2022/01/11 06:09:18;;;;;;;111.55;31.67;;;-0.60;99.90;;;;;;5016998;28;20099;-91
2022/01/11 06:11:44;;;;;;;96.70;30.90;;;-0.60;99.90;;;;;;4991736;28;20128;-92
2022/01/11 06:14:10;;;;;;;87.47;30.85;;;-0.40;99.90;;;;;;4996982;28;20145;-90
2022/01/11 06:16:36;;;;;;;90.00;29.67;;;-0.60;99.90;;;;;;4981123;28;20068;-91
2022/01/11 06:19:05;;;;;;;86.25;27.65;;;-0.60;99.90;;;;;;4997112;28;20061;-91
2022/01/11 06:25:11;;;;;;;79.97;26.13;;;-0.60;99.90;;;;;;5014101;28;20064;-91
2022/01/11 06:27:40;;;;;;;89.13;26.65;;;-0.60;99.90;;;;;;4997029;28;20054;-90
2022/01/11 06:30:07;;;;;;;82.18;25.63;;;-0.70;99.90;;;;;;4997105;28;20060;-90
2022/01/11 06:32:33;;;;;;;68.20;24.95;;;-0.60;99.90;;;;;;4980494;28;20053;-90
2022/01/11 06:34:59;;;;;;;77.50;26.05;;;-0.70;99.90;;;;;;4979825;28;20073;-90
2022/01/11 06:37:25;;;;;;;67.40;24.63;;;-0.70;99.90;;;;;;4980479;28;20083;-92
2022/01/11 06:39:51;;;;;;;71.85;24.02;;;-0.70;99.90;;;;;;4990241;28;20201;-90
2022/01/11 06:42:17;;;;;;;74.70;24.48;;;-0.80;99.90;;;;;;4996571;28;20060;-91
2022/01/11 06:44:43;;;;;;;71.50;23.63;;;-0.80;99.90;;;;;;4980352;28;20046;-90
2022/01/11 06:47:10;;;;;;;126.97;26.52;;;-0.80;99.90;;;;;;4996392;28;20499;-90
2022/01/11 06:49:35;;;;;;;59.47;22.90;;;-0.70;99.90;;;;;;4995851;28;20048;-90
2022/01/11 06:52:01;;;;;;;64.38;22.17;;;-0.80;99.90;;;;;;4979628;28;20050;-89
2022/01/11 06:54:27;;;;;;;60.92;21.95;;;-0.80;99.90;;;;;;4980183;28;20081;-90
2022/01/11 06:56:53;;;;;;;58.33;21.52;;;-0.80;99.90;;;;;;4979627;28;20057;-90
2022/01/11 06:59:18;;;;;;;58.72;22.75;;;-0.80;99.90;;;;;;4979909;28;20046;-91
2022/01/11 07:01:45;;;;;;;55.63;21.63;;;-0.80;99.90;;;;;;4996065;28;20057;-90
2022/01/11 07:04:10;;;;;;;57.60;21.00;;;-0.30;99.90;;;;;;4980009;28;20058;-90
2022/01/11 07:06:36;;;;;;;56.22;21.52;;;-0.80;99.90;;;;;;4995699;28;20049;-90
2022/01/11 07:09:02;;;;;;;50.53;20.05;;;-0.70;99.90;;;;;;4995701;28;20458;-91
2022/01/11 07:11:28;;;;;;;51.33;20.48;;;-0.60;99.90;;;;;;4995737;28;20093;-90
2022/01/11 07:13:54;;;;;;;55.90;20.58;;;-0.80;99.90;;;;;;4979359;28;20463;-91
2022/01/11 07:16:20;;;;;;;49.78;19.65;;;-0.80;99.90;;;;;;4995744;28;20144;-88
2022/01/11 07:18:47;;;;;;;48.72;20.23;;;-0.90;99.90;;;;;;4995841;28;20053;-91
2022/01/11 07:21:13;;;;;;;49.65;18.50;;;-0.90;99.90;;;;;;5018461;28;20061;-89
2022/01/11 07:23:39;;;;;;;47.50;19.77;;;-0.90;99.90;;;;;;5018084;28;20050;-88
2022/01/11 07:26:07;;;;;;;48.78;19.20;;;-0.60;99.90;;;;;;5016749;28;20057;-87
2022/01/11 07:28:34;;;;;;;49.60;18.65;;;-0.90;99.90;;;;;;5000688;28;20045;-88
2022/01/11 07:31:00;;;;;;;49.85;18.90;;;-0.90;99.90;;;;;;5017396;28;20060;-90
2022/01/11 07:33:25;;;;;;;48.72;18.58;;;-0.90;99.90;;;;;;5000487;28;20053;-90
2022/01/11 07:35:51;;;;;;;46.78;18.27;;;-0.90;99.90;;;;;;5016804;28;20111;-91
2022/01/11 07:38:17;;;;;;;46.65;17.38;;;-0.90;99.90;;;;;;5017526;28;20049;-89
2022/01/11 07:40:42;;;;;;;49.28;17.95;;;-0.80;99.90;;;;;;5017383;28;20049;-89
2022/01/11 07:43:08;;;;;;;42.60;17.27;;;-1.10;99.90;;;;;;5016818;28;20336;-89
2022/01/11 07:45:34;;;;;;;48.42;16.60;;;-0.90;99.90;;;;;;5000077;28;20138;-88
2022/01/11 07:48:00;;;;;;;45.28;17.67;;;-0.80;99.90;;;;;;5006545;28;20069;-88
2022/01/11 07:50:26;;;;;;;38.13;16.23;;;-0.80;99.90;;;;;;4980947;28;20132;-89
2022/01/11 07:52:52;;;;;;;40.85;16.73;;;-0.80;99.90;;;;;;4981075;28;20064;-89
2022/01/11 07:55:19;;;;;;;48.60;17.13;;;-0.80;99.90;;;;;;4997784;28;20373;-88
2022/01/11 07:57:45;;;;;;;44.38;17.17;;;-0.80;99.90;;;;;;4998595;28;20125;-88
2022/01/11 08:00:11;;;;;;;49.05;17.30;;;-0.30;99.90;;;;;;4997590;28;20050;-90
2022/01/11 08:02:37;;;;;;;41.90;18.20;;;-0.70;99.90;;;;;;4998575;28;20108;-88
2022/01/11 08:08:08;;;;;;;45.75;17.42;;;-0.60;99.90;;;;;;5022979;28;20041;-90
2022/01/11 08:10:34;;;;;;;49.03;17.80;;;-0.40;99.90;;;;;;5002833;28;20045;-91
2022/01/11 08:13:02;;;;;;;49.10;17.92;;;-0.50;99.90;;;;;;5019025;28;20046;-90
2022/01/11 08:15:28;;;;;;;74.18;18.85;;;-0.50;99.90;;;;;;5003406;28;20132;-92
2022/01/11 08:17:54;;;;;;;46.47;17.30;;;-0.40;99.90;;;;;;4996692;28;20053;-91
2022/01/11 08:20:20;;;;;;;46.47;17.67;;;-0.40;99.90;;;;;;5019495;28;20403;-91
2022/01/11 08:22:48;;;;;;;49.17;17.52;;;-0.40;99.90;;;;;;5022227;28;20176;-91
2022/01/11 08:25:14;;;;;;;428.30;42.53;;;-0.40;99.90;;;;;;5003074;28;20093;-91
2022/01/11 08:27:41;;;;;;;48.78;17.73;;;0.00;99.90;;;;;;5019524;28;20466;-91
2022/01/11 08:30:07;;;;;;;43.20;17.30;;;-0.10;99.90;;;;;;5020060;28;20407;-91
2022/01/11 08:32:33;;;;;;;46.80;17.42;;;-0.20;99.90;;;;;;5002616;28;20053;-90
2022/01/11 08:34:59;;;;;;;47.55;18.27;;;-0.20;99.90;;;;;;5002738;28;20076;-91
2022/01/11 08:37:25;;;;;;;253.45;29.88;;;0.30;99.90;;;;;;5019135;28;20138;-91
2022/01/11 08:39:50;;;;;;;47.97;19.10;;;-0.10;99.90;;;;;;5003075;28;20049;-91
2022/01/11 08:42:16;;;;;;;48.78;19.10;;;-0.10;99.90;;;;;;5019502;28;20057;-92
2022/01/11 08:44:46;;;;;;;45.05;17.13;;;0.00;99.90;;;;;;5003313;28;20076;-92
2022/01/11 08:47:14;;;;;;;46.23;18.20;;;0.00;99.90;;;;;;5003266;28;20108;-91
2022/01/11 08:49:40;;;;;;;52.10;19.02;;;0.10;99.90;;;;;;5004804;28;20058;-91
2022/01/11 08:55:48;;;;;;;46.63;19.88;;;0.30;99.90;;;;;;5038832;28;20067;-91
2022/01/11 08:58:14;;;;;;;56.45;22.42;;;0.30;99.90;;;;;;5019621;28;20494;-92
2022/01/11 09:00:40;;;;;;;45.63;20.40;;;0.90;99.90;;;;;;5019800;28;20087;-92
2022/01/11 09:03:06;;;;;;;53.42;20.27;;;0.40;99.90;;;;;;5003193;28;20486;-92
2022/01/11 09:05:31;;;;;;;51.70;20.90;;;0.50;99.90;;;;;;5003171;28;20079;-92
2022/01/11 09:07:57;;;;;;;41.67;19.45;;;0.50;99.90;;;;;;5003377;28;20052;-93
2022/01/11 09:10:23;;;;;;;43.03;18.63;;;0.60;99.90;;;;;;5019192;28;20446;-92
2022/01/11 09:12:50;;;;;;;36.67;17.27;;;0.80;99.90;;;;;;5002717;28;20057;-93
2022/01/11 09:15:16;;;;;;;40.13;21.73;;;0.80;99.90;;;;;;5019423;28;20054;-92
2022/01/11 09:17:42;;;;;;;38.08;21.90;;;0.90;99.90;;;;;;4971617;28;20450;-93
2022/01/11 09:20:10;;;;;;;31.60;16.70;;;0.70;99.90;;;;;;4999813;28;20050;-93
2022/01/11 09:22:36;;;;;;;40.90;18.70;;;0.80;99.90;;;;;;4999940;28;20062;-93
2022/01/11 09:25:03;;;;;;;32.03;16.60;;;0.80;99.90;;;;;;4999652;28;20061;-93
2022/01/11 09:27:29;;;;;;;31.33;16.25;;;0.80;99.90;;;;;;5015964;28;20053;-94
2022/01/11 09:29:55;;;;;;;30.25;17.10;;;0.90;99.90;;;;;;5000079;28;20057;-93
2022/01/11 09:32:21;;;;;;;28.10;15.20;;;1.00;99.90;;;;;;5015927;28;20046;-94
2022/01/11 09:34:47;;;;;;;30.38;13.98;;;1.10;99.90;;;;;;5003148;28;20065;-95
2022/01/11 09:37:13;;;;;;;30.75;14.85;;;1.10;99.90;;;;;;5019474;28;20057;-94
2022/01/11 09:39:39;;;;;;;32.25;16.45;;;1.40;99.90;;;;;;5018510;28;20046;-95
2022/01/11 09:42:06;;;;;;;31.70;15.65;;;1.40;99.90;;;;;;5019702;28;20479;-95
2022/01/11 09:44:38;;;;;;;43.17;16.55;;;1.10;99.90;;;;;;5002940;28;20069;-94
2022/01/11 09:47:07;;;;;;;32.03;16.50;;;1.00;99.90;;;;;;5004167;28;20053;-94
2022/01/11 09:49:33;;;;;;;34.20;16.88;;;1.00;99.90;;;;;;5004663;28;20414;-93
2022/01/11 09:52:02;;;;;;;32.42;17.25;;;1.30;99.90;;;;;;5019901;28;20053;-94
2022/01/11 09:54:27;;;;;;;37.28;17.27;;;1.00;99.90;;;;;;5002638;28;20070;-94
2022/01/11 09:56:53;;;;;;;35.20;16.90;;;1.00;99.90;;;;;;5019810;28;20050;-95
2022/01/11 09:59:19;;;;;;;36.95;17.15;;;1.00;99.90;;;;;;5036462;28;20076;-94
2022/01/11 10:01:45;;;;;;;35.88;17.08;;;1.00;99.90;;;;;;5003171;28;20050;-94
2022/01/11 10:04:14;;;;;;;32.30;17.38;;;1.00;99.90;;;;;;5002215;28;20049;-94
2022/01/11 10:06:42;;;;;;;36.58;16.55;;;0.90;99.90;;;;;;5003000;28;20053;-94
2022/01/11 10:09:16;;;;;;;37.17;18.05;;;1.00;99.90;;;;;;5019029;28;20061;-94
2022/01/11 10:11:48;;;;;;;36.95;17.08;;;0.80;99.90;;;;;;5018518;28;20065;-93
2022/01/11 10:14:18;;;;;;;36.00;17.33;;;0.80;99.90;;;;;;5017591;28;20057;-94
2022/01/11 10:16:44;;;;;;;36.83;17.67;;;0.90;99.90;;;;;;5017436;28;20049;-94
2022/01/11 10:19:22;;;;;;;44.30;18.50;;;0.80;99.90;;;;;;4979028;28;20061;-94
2022/01/11 10:21:50;;;;;;;37.40;17.08;;;1.00;99.90;;;;;;5017403;28;20052;-93
2022/01/11 10:24:36;;;;;;;35.55;16.45;;;1.30;99.90;;;;;;5001331;28;20057;-94
2022/01/11 10:27:20;;;;;;;31.17;15.32;;;1.10;99.90;;;;;;5017202;28;20054;-94
2022/01/11 10:29:53;;;;;;;31.63;14.95;;;1.50;99.90;;;;;;5000394;28;20064;-93
2022/01/11 10:32:20;;;;;;;27.02;15.27;;;1.80;99.90;;;;;;5016967;28;20049;-94
2022/01/11 10:34:51;;;;;;;31.23;15.27;;;1.80;99.90;;;;;;5000246;28;20053;-93
2022/01/11 10:37:34;;;;;;;28.05;15.20;;;1.90;99.90;;;;;;5000477;28;20132;-94
2022/01/11 10:40:04;;;;;;;28.77;15.52;;;1.90;99.90;;;;;;5015829;28;20050;-93
2022/01/11 10:42:33;;;;;;;28.08;15.10;;;2.10;99.90;;;;;;5016238;28;20049;-93
2022/01/11 10:45:10;;;;;;;29.25;15.57;;;2.20;99.90;;;;;;4999410;28;20104;-94
2022/01/11 10:47:42;;;;;;;30.55;15.25;;;2.30;99.90;;;;;;4999270;28;20061;-94
2022/01/11 10:50:19;;;;;;;23.90;14.38;;;2.70;99.90;;;;;;4999836;28;20057;-95
2022/01/11 10:53:06;;;;;;;24.30;14.45;;;3.30;99.90;;;;;;5019278;28;20099;-95
2022/01/11 10:55:34;;;;;;;26.65;14.60;;;3.50;99.90;;;;;;5003706;28;20454;-93
2022/01/11 10:58:07;;;;;;;23.60;14.35;;;4.00;99.90;;;;;;5020146;28;20140;-94
2022/01/11 11:00:36;;;;;;;28.17;14.13;;;4.20;99.90;;;;;;5003560;28;20042;-94
2022/01/11 11:03:18;;;;;;;27.75;15.48;;;3.80;99.90;;;;;;5003474;28;20115;-94
2022/01/11 11:05:49;;;;;;;27.17;13.38;;;4.10;99.90;;;;;;5003313;28;20100;-94
2022/01/11 11:08:21;;;;;;;29.73;14.60;;;4.00;99.90;;;;;;5003503;28;20057;-94
2022/01/11 11:10:48;;;;;;;;;;;3.90;99.90;;;;;;5020366;28;20053;-94
2022/01/11 11:13:21;;;;;;;25.80;14.32;;;4.80;99.90;;;;;;5003938;28;19971;-94
2022/01/11 11:15:50;;;;;;;26.35;13.95;;;5.60;99.90;;;;;;5019159;28;20053;-90
2022/01/11 11:18:26;;;;;;;25.45;13.68;;;6.30;99.90;;;;;;4992543;28;20550;-94
2022/01/11 11:20:53;;;;;;;21.27;12.07;;;7.10;99.90;;;;;;4983107;28;20388;-94
2022/01/11 11:23:19;;;;;;;23.70;13.57;;;7.70;99.90;;;;;;4983278;28;20415;-92
2022/01/11 11:25:45;;;;;;;23.42;13.20;;;8.00;99.90;;;;;;4982678;28;20491;-94
2022/01/11 11:28:11;;;;;;;24.98;13.70;;;7.40;99.90;;;;;;4982193;28;20053;-92
2022/01/11 11:30:36;;;;;;;27.23;14.95;;;6.60;99.90;;;;;;5015219;28;20589;-93
2022/01/11 11:33:03;;;;;;;28.40;15.55;;;5.70;99.90;;;;;;5001688;28;20145;-93
2022/01/11 11:35:29;;;;;;;28.67;15.50;;;4.80;99.90;;;;;;5048909;28;20418;-93
2022/01/11 11:38:01;;;;;;;32.63;16.50;;;4.40;99.90;;;;;;5048427;28;20089;-93
2022/01/11 11:40:29;;;;;;;35.60;15.45;;;3.70;99.90;;;;;;5031608;28;20517;-93
2022/01/11 11:43:00;;;;;;;27.80;15.20;;;3.30;99.90;;;;;;5048271;28;20050;-94
2022/01/11 11:45:36;;;;;;;33.42;16.13;;;3.10;99.90;;;;;;5031766;28;20509;-93
2022/01/11 11:48:12;;;;;;;30.33;15.05;;;3.10;99.90;;;;;;5026885;28;20237;-93
2022/01/11 11:50:53;;;;;;;31.02;14.52;;;3.20;99.90;;;;;;5017790;28;20053;-93
2022/01/11 11:53:28;;;;;;;28.05;14.65;;;3.50;99.90;;;;;;5020077;28;20125;-93
2022/01/11 11:56:13;;;;;;;29.10;13.50;;;4.10;99.90;;;;;;5002792;28;20457;-93
2022/01/11 11:58:44;;;;;;;30.58;13.85;;;5.20;99.90;;;;;;5018028;28;20053;-93
2022/01/11 12:01:45;;;;;;;27.02;13.38;;;6.40;99.90;;;;;;5018435;28;20056;-93
2022/01/11 12:04:13;;;;;;;30.48;14.25;;;6.30;99.90;;;;;;4939126;29;20178;-93
2022/01/11 12:06:39;;;;;;;28.23;14.48;;;6.20;99.90;;;;;;4955482;29;20047;-93
2022/01/11 12:09:07;;;;;;;29.25;14.52;;;5.70;99.90;;;;;;4955682;28;20047;-92
2022/01/11 12:11:36;;;;;;;29.88;14.60;;;6.00;99.90;;;;;;4939902;29;20051;-94
2022/01/11 12:14:03;;;;;;;30.23;14.80;;;5.70;99.90;;;;;;4923938;29;20480;-93
2022/01/11 12:16:34;;;;;;;29.23;15.48;;;5.90;99.90;;;;;;4939677;29;20059;-93
2022/01/11 12:19:04;;;;;;;30.17;14.00;;;6.30;99.90;;;;;;4916883;28;20134;-94
2022/01/11 12:21:52;;;;;;;27.70;15.05;;;6.50;99.90;;;;;;4923159;29;20568;-94
2022/01/11 12:24:37;;;;;;;28.60;14.88;;;6.70;99.90;;;;;;4940013;29;20110;-93
2022/01/11 12:27:03;;;;;;;23.23;13.68;;;7.10;99.90;;;;;;4923178;29;20073;-95
2022/01/11 12:29:29;;;;;;;28.45;14.25;;;7.20;99.90;;;;;;4955000;29;20097;-94
2022/01/11 12:32:07;;;;;;;31.98;15.70;;;7.30;99.90;;;;;;4923902;29;20090;-94
2022/01/11 12:34:50;;;;;;;30.33;15.38;;;7.30;99.90;;;;;;4922799;29;20138;-93
2022/01/11 12:37:35;;;;;;;29.42;14.43;;;7.30;99.90;;;;;;4922633;29;20503;-93
2022/01/11 12:40:01;;;;;;;27.35;14.63;;;7.10;99.90;;;;;;4964327;28;20057;-91
2022/01/11 12:42:28;;;;;;;26.85;15.23;;;7.00;99.90;;;;;;5017474;28;20053;-91
2022/01/11 12:47:25;;;;;;;28.83;14.73;;;6.50;99.90;;;;;;5017542;28;20053;-93
2022/01/11 12:50:06;;;;;;;29.50;15.73;;;6.30;99.90;;;;;;5001077;28;20057;-93
2022/01/11 12:52:32;;;;;;;30.83;15.00;;;6.10;99.90;;;;;;5001494;28;20073;-93
2022/01/11 12:54:58;;;;;;;30.90;14.90;;;5.90;99.90;;;;;;5001752;28;20045;-95
2022/01/11 12:57:27;;;;;;;27.10;14.55;;;5.80;99.90;;;;;;5001779;28;20067;-94
2022/01/11 12:59:58;;;;;;;30.30;15.00;;;6.00;99.90;;;;;;5001009;28;20411;-92
2022/01/11 13:02:30;;;;;;;30.75;15.40;;;5.70;99.90;;;;;;5017780;28;20064;-93